createdAt,value
2022-09-15T00:02:51.050Z,62.21
2022-09-15T00:05:54.284Z,61.57
2022-09-15T00:08:56.623Z,61.64
2022-09-15T00:11:58.816Z,60.89
2022-09-15T00:15:01.149Z,60.41
2022-09-15T00:18:03.440Z,60.09
2022-09-15T00:21:11.603Z,59.82
2022-09-15T00:24:14.251Z,59.53
2022-09-15T00:27:17.155Z,60.13
2022-09-15T00:30:19.322Z,59.73
2022-09-15T00:33:22.735Z,60.07
2022-09-15T00:36:26.402Z,60.21
2022-09-15T00:39:28.585Z,59.78
2022-09-15T00:42:30.788Z,59.65
2022-09-15T00:45:32.995Z,59.54
2022-09-15T00:48:37.143Z,59.75
2022-09-15T00:51:50.630Z,59.92
2022-09-15T00:55:16.124Z,60.03
2022-09-15T00:58:28.764Z,60.09
2022-09-15T01:01:31.879Z,60.37
2022-09-15T01:04:34.184Z,60.25
2022-09-15T01:07:47.520Z,60.52
2022-09-15T01:10:52.068Z,60.61
2022-09-15T01:13:54.204Z,61.34
2022-09-15T01:17:07.083Z,61.28
2022-09-15T01:20:30.303Z,61.05
2022-09-15T01:23:47.556Z,61.50
2022-09-15T01:27:30.479Z,61.45
2022-09-15T01:30:37.777Z,61.91
2022-09-15T01:33:48.662Z,62.20
2022-09-15T01:37:03.467Z,62.12
2022-09-15T01:40:07.228Z,62.73
2022-09-15T01:43:11.186Z,62.34
2022-09-15T01:46:15.340Z,63.15
2022-09-15T01:49:25.401Z,62.80
2022-09-15T01:52:29.148Z,62.51
2022-09-15T01:55:40.924Z,62.50
2022-09-15T01:58:43.131Z,62.77
2022-09-15T02:01:59.874Z,62.85
2022-09-15T02:05:18.171Z,63.09
2022-09-15T02:08:30.984Z,63.03
2022-09-15T02:11:36.683Z,63.29
2022-09-15T02:14:52.638Z,63.86
2022-09-15T02:17:58.055Z,63.96
2022-09-15T02:21:18.937Z,63.95
2022-09-15T02:24:28.726Z,64.01
2022-09-15T02:27:37.496Z,65.74
2022-09-15T02:30:42.690Z,63.61
2022-09-15T02:33:53.416Z,64.39
2022-09-15T02:36:56.487Z,63.27
2022-09-15T02:40:00.228Z,63.17
2022-09-15T02:43:05.394Z,63.48
2022-09-15T02:46:08.139Z,63.20
2022-09-15T02:49:10.380Z,62.33
2022-09-15T02:52:12.734Z,62.30
2022-09-15T02:55:15.839Z,62.63
2022-09-15T02:58:18.046Z,62.63
2022-09-15T03:01:32.281Z,62.88
2022-09-15T03:04:34.498Z,62.99
2022-09-15T03:07:38.112Z,63.39
2022-09-15T03:10:40.334Z,62.78
2022-09-15T03:13:43.086Z,63.59
2022-09-15T03:16:45.413Z,63.37
2022-09-15T03:19:47.607Z,62.89
2022-09-15T03:22:50.378Z,62.68
2022-09-15T03:25:52.511Z,62.57
2022-09-15T03:28:54.763Z,62.94
2022-09-15T03:31:57.379Z,63.72
2022-09-15T03:35:02.806Z,65.87
2022-09-15T03:38:07.263Z,69.14
2022-09-15T03:41:12.135Z,69.76
2022-09-15T03:44:14.314Z,72.21
2022-09-15T03:47:16.638Z,74.72
2022-09-15T03:50:18.808Z,74.80
2022-09-15T03:53:21.372Z,77.87
2022-09-15T03:56:31.270Z,79.21
2022-09-15T03:59:33.609Z,80.73
2022-09-15T04:02:35.774Z,81.73
2022-09-15T04:05:38.793Z,82.65
2022-09-15T04:08:41.851Z,84.29
2022-09-15T04:11:44.104Z,87.10
2022-09-15T04:14:46.286Z,87.51
2022-09-15T04:17:48.675Z,87.86
2022-09-15T04:20:50.825Z,88.82
2022-09-15T04:23:54.128Z,87.93
2022-09-15T04:26:56.292Z,85.77
2022-09-15T04:29:59.328Z,84.94
2022-09-15T04:33:01.489Z,86.00
2022-09-15T04:36:30.140Z,85.95
2022-09-15T04:39:32.295Z,86.13
2022-09-15T04:42:34.523Z,86.08
2022-09-15T04:45:36.735Z,86.71
2022-09-15T04:48:39.016Z,87.92
2022-09-15T04:51:41.234Z,87.90
2022-09-15T04:54:43.703Z,88.44
2022-09-15T04:57:46.650Z,88.16
2022-09-15T05:00:48.886Z,87.48
2022-09-15T05:03:51.924Z,88.51
2022-09-15T05:06:54.151Z,88.05
2022-09-15T05:09:56.405Z,89.42
2022-09-15T05:12:59.101Z,88.93
2022-09-15T05:16:12.461Z,89.54
2022-09-15T05:19:17.903Z,89.98
2022-09-15T05:22:20.333Z,89.20
2022-09-15T05:25:22.515Z,88.68
2022-09-15T05:28:24.994Z,88.30
2022-09-15T05:31:31.287Z,88.22
2022-09-15T05:34:33.603Z,86.38
2022-09-15T05:37:35.806Z,85.61
2022-09-15T05:40:40.912Z,85.64
2022-09-15T05:43:44.095Z,84.91
2022-09-15T05:46:46.377Z,83.76
2022-09-15T05:49:48.575Z,83.42
2022-09-15T05:52:51.664Z,83.51
2022-09-15T05:56:05.632Z,85.61
2022-09-15T05:59:10.822Z,84.20
2022-09-15T06:02:22.258Z,84.65
2022-09-15T06:05:26.520Z,83.97
2022-09-15T06:08:43.751Z,84.14
2022-09-15T06:11:52.170Z,83.61
2022-09-15T06:14:54.413Z,83.03
2022-09-15T06:17:59.176Z,80.39
2022-09-15T06:21:07.595Z,80.35
2022-09-15T06:24:15.764Z,79.92
2022-09-15T06:27:21.491Z,78.96
2022-09-15T06:30:25.092Z,78.54
2022-09-15T06:33:27.727Z,77.02
2022-09-15T06:36:30.952Z,77.06
2022-09-15T06:39:33.241Z,74.72
2022-09-15T06:42:36.726Z,74.46
2022-09-15T06:45:42.659Z,74.58
2022-09-15T06:48:48.111Z,72.25
2022-09-15T06:51:52.866Z,72.74
2022-09-15T06:54:55.189Z,70.65
2022-09-15T06:57:57.604Z,70.65
2022-09-15T07:01:12.237Z,70.23
2022-09-15T07:04:14.556Z,69.34
2022-09-15T07:07:20.406Z,69.10
2022-09-15T07:10:26.123Z,69.27
2022-09-15T07:13:31.845Z,67.44
2022-09-15T07:16:36.780Z,68.13
2022-09-15T07:19:43.509Z,65.21
2022-09-15T07:22:46.580Z,66.41
2022-09-15T07:25:49.396Z,66.14
2022-09-15T07:28:58.684Z,65.82
2022-09-15T07:32:04.922Z,65.36
2022-09-15T07:35:08.191Z,64.47
2022-09-15T07:38:14.319Z,62.99
2022-09-15T07:41:21.665Z,62.86
2022-09-15T07:44:24.695Z,60.56
2022-09-15T07:47:27.045Z,61.79
2022-09-15T07:50:29.210Z,60.33
2022-09-15T07:53:35.904Z,61.08
2022-09-15T07:56:42.143Z,60.95
2022-09-15T07:59:47.488Z,60.01
2022-09-15T08:02:52.380Z,60.08
2022-09-15T08:06:05.795Z,58.66
2022-09-15T08:09:18.003Z,59.49
2022-09-15T08:12:20.721Z,57.74
2022-09-15T08:15:23.215Z,57.40
2022-09-15T08:18:25.480Z,58.12
2022-09-15T08:21:31.103Z,58.01
2022-09-15T08:24:34.089Z,57.59
2022-09-15T08:27:42.082Z,57.34
2022-09-15T08:30:50.684Z,56.67
2022-09-15T08:33:58.036Z,56.45
2022-09-15T08:37:03.208Z,56.98
2022-09-15T08:40:05.944Z,58.89
2022-09-15T08:43:22.345Z,57.68
2022-09-15T08:46:32.069Z,54.42
2022-09-15T08:49:52.093Z,53.90
2022-09-15T08:53:01.504Z,52.47
2022-09-15T08:56:24.525Z,51.39
2022-09-15T08:59:42.097Z,51.80
2022-09-15T09:03:10.932Z,51.49
2022-09-15T09:06:37.887Z,52.25
2022-09-15T09:09:54.074Z,51.93
2022-09-15T09:13:07.605Z,51.20
2022-09-15T09:17:10.972Z,52.05
2022-09-15T09:20:55.812Z,51.86
2022-09-15T09:24:08.031Z,52.84
2022-09-15T09:27:22.040Z,51.97
2022-09-15T09:30:31.785Z,52.88
2022-09-15T09:33:49.031Z,52.37
2022-09-15T09:37:00.565Z,51.42
2022-09-15T09:40:02.831Z,51.58
2022-09-15T09:43:05.088Z,52.81
2022-09-15T09:46:16.592Z,52.23
2022-09-15T09:49:23.488Z,52.71
2022-09-15T09:52:39.124Z,52.91
2022-09-15T09:55:41.735Z,52.73
2022-09-15T09:58:44.924Z,54.04
2022-09-15T10:02:05.994Z,53.30
2022-09-15T10:05:12.501Z,52.28
2022-09-15T10:08:17.845Z,52.36
2022-09-15T10:11:20.134Z,51.58
2022-09-15T10:14:25.471Z,52.29
2022-09-15T10:17:44.717Z,53.26
2022-09-15T10:20:50.403Z,52.85
2022-09-15T10:23:52.729Z,51.98
2022-09-15T10:27:23.597Z,52.49
2022-09-15T10:30:26.834Z,51.58
2022-09-15T10:33:35.078Z,51.12
2022-09-15T10:36:37.540Z,51.10
2022-09-15T10:39:48.539Z,50.34
2022-09-15T10:42:53.427Z,49.76
2022-09-15T10:46:06.675Z,50.60
2022-09-15T10:49:30.989Z,50.67
2022-09-15T10:53:10.708Z,51.16
2022-09-15T10:56:38.879Z,51.11
2022-09-15T10:59:52.548Z,51.03
2022-09-15T11:03:23.492Z,51.15
2022-09-15T11:06:45.515Z,49.61
2022-09-15T11:10:21.232Z,50.20
2022-09-15T11:13:39.747Z,50.24
2022-09-15T11:17:20.169Z,50.91
2022-09-15T11:20:47.126Z,52.38
2022-09-15T11:24:30.702Z,52.31
2022-09-15T11:28:06.215Z,52.51
2022-09-15T11:31:16.981Z,51.04
2022-09-15T11:34:28.717Z,49.08
2022-09-15T11:37:39.873Z,48.08
2022-09-15T11:40:52.577Z,47.63
2022-09-15T11:44:17.660Z,46.52
2022-09-15T11:47:42.691Z,47.69
2022-09-15T11:50:48.158Z,48.76
2022-09-15T11:54:05.899Z,45.37
2022-09-15T11:57:35.662Z,44.46
2022-09-15T12:00:55.877Z,45.07
2022-09-15T12:04:08.592Z,46.91
2022-09-15T12:07:18.930Z,45.66
2022-09-15T12:10:25.485Z,45.40
2022-09-15T12:13:28.940Z,44.22
2022-09-15T12:16:33.216Z,43.59
2022-09-15T12:20:04.054Z,41.36
2022-09-15T12:23:29.213Z,39.94
2022-09-15T12:26:33.694Z,38.87
2022-09-15T12:29:42.039Z,37.59
2022-09-15T12:32:44.856Z,42.48
2022-09-15T12:35:47.524Z,45.35
2022-09-15T12:38:49.849Z,45.94
2022-09-15T12:42:11.691Z,47.12
2022-09-15T12:45:32.824Z,47.64
2022-09-15T12:48:36.492Z,47.96
2022-09-15T12:51:38.750Z,44.80
2022-09-15T12:54:43.381Z,43.02
2022-09-15T12:57:54.164Z,40.29
2022-09-15T13:01:18.773Z,44.41
2022-09-15T13:04:28.833Z,46.67
2022-09-15T13:07:36.135Z,48.59
2022-09-15T13:10:42.595Z,49.55
2022-09-15T13:13:56.267Z,50.54
2022-09-15T13:17:13.232Z,49.99
2022-09-15T13:20:22.293Z,51.71
2022-09-15T13:23:27.240Z,56.66
2022-09-15T13:26:31.744Z,60.26
2022-09-15T13:29:38.856Z,63.06
2022-09-15T13:32:44.604Z,67.79
2022-09-15T13:35:49.863Z,73.53
2022-09-15T13:39:16.685Z,75.12
2022-09-15T13:43:07.624Z,76.46
2022-09-15T13:46:14.026Z,77.27
2022-09-15T13:49:38.473Z,77.30
2022-09-15T13:53:01.680Z,79.49
2022-09-15T13:56:08.988Z,80.19
2022-09-15T13:59:24.177Z,81.99
2022-09-15T14:02:27.305Z,79.12
2022-09-15T14:05:33.242Z,79.61
2022-09-15T14:08:35.700Z,78.77
2022-09-15T14:11:38.648Z,79.38
2022-09-15T14:14:53.820Z,79.68
2022-09-15T14:17:56.036Z,80.18
2022-09-15T14:21:04.331Z,81.56
2022-09-15T14:24:20.595Z,81.91
2022-09-15T14:27:26.144Z,80.20
2022-09-15T14:30:32.030Z,81.99
2022-09-15T14:33:41.927Z,79.85
2022-09-15T14:36:44.663Z,78.61
2022-09-15T14:39:56.631Z,79.99
2022-09-15T14:42:59.152Z,78.09
2022-09-15T14:46:17.523Z,77.83
2022-09-15T14:49:19.831Z,77.63
2022-09-15T14:52:30.680Z,77.78
2022-09-15T14:55:54.624Z,77.35
2022-09-15T14:59:01.891Z,78.24
2022-09-15T15:02:17.892Z,77.82
2022-09-15T15:05:43.927Z,78.86
2022-09-15T15:08:57.054Z,78.84
2022-09-15T15:12:09.998Z,80.06
2022-09-15T15:15:14.558Z,78.99
2022-09-15T15:18:32.146Z,79.35
2022-09-15T15:21:38.651Z,79.20
2022-09-15T15:24:43.934Z,78.60
2022-09-15T15:27:57.123Z,78.41
2022-09-15T15:31:17.847Z,79.41
2022-09-15T15:34:24.656Z,79.47
2022-09-15T15:37:28.138Z,80.12
2022-09-15T15:40:31.130Z,79.69
2022-09-15T15:43:34.473Z,79.98
2022-09-15T15:47:13.964Z,79.34
2022-09-15T15:50:22.855Z,78.80
2022-09-15T15:53:26.161Z,78.58
2022-09-15T15:56:28.386Z,76.94
2022-09-15T15:59:31.166Z,76.81
2022-09-15T16:02:33.371Z,76.27
2022-09-15T16:05:36.109Z,76.03
2022-09-15T16:08:40.494Z,74.92
2022-09-15T16:11:43.104Z,75.38
2022-09-15T16:14:45.453Z,76.49
2022-09-15T16:17:48.190Z,79.20
2022-09-15T16:20:50.449Z,82.72
2022-09-15T16:23:52.632Z,85.00
2022-09-15T16:26:55.418Z,86.12
2022-09-15T16:29:57.547Z,86.81
2022-09-15T16:32:59.816Z,87.15
2022-09-15T16:36:06.929Z,88.22
2022-09-15T16:39:09.588Z,89.00
2022-09-15T16:42:11.767Z,88.87
2022-09-15T16:45:41.022Z,89.14
2022-09-15T16:48:43.896Z,89.46
2022-09-15T16:51:53.050Z,88.43
2022-09-15T16:54:56.041Z,89.50
2022-09-15T16:58:05.018Z,87.71
2022-09-15T17:01:21.938Z,88.63
2022-09-15T17:04:24.160Z,87.84
2022-09-15T17:07:26.924Z,88.83
2022-09-15T17:10:29.358Z,89.10
2022-09-15T17:13:33.845Z,89.18
2022-09-15T17:16:38.188Z,90.08
2022-09-15T17:19:40.316Z,89.73
2022-09-15T17:22:42.617Z,90.13
2022-09-15T17:25:51.250Z,90.79
2022-09-15T17:28:55.496Z,91.40
2022-09-15T17:31:57.639Z,91.41
2022-09-15T17:35:00.132Z,91.41
2022-09-15T17:38:04.278Z,91.07
2022-09-15T17:41:17.144Z,91.51
2022-09-15T17:44:19.276Z,91.95
2022-09-15T17:47:21.473Z,91.74
2022-09-15T17:50:25.433Z,91.99
2022-09-15T17:53:27.780Z,92.42
2022-09-15T17:56:29.912Z,92.71
2022-09-15T17:59:32.109Z,93.05
2022-09-15T18:02:34.728Z,93.08
2022-09-15T18:05:38.514Z,92.62
2022-09-15T18:08:40.804Z,92.60
2022-09-15T18:11:43.124Z,92.43
2022-09-15T18:14:45.306Z,92.33
2022-09-15T18:17:48.681Z,92.23
2022-09-15T18:20:52.988Z,92.11
2022-09-15T18:23:56.063Z,91.95
2022-09-15T18:26:58.190Z,92.07
2022-09-15T18:30:00.759Z,91.61
2022-09-15T18:33:03.100Z,91.74
2022-09-15T18:36:06.926Z,91.63
2022-09-15T18:39:11.918Z,91.60
2022-09-15T18:42:14.106Z,91.94
2022-09-15T18:45:17.785Z,92.00
2022-09-15T18:48:20.098Z,91.83
2022-09-15T18:51:29.195Z,91.77
2022-09-15T18:54:37.022Z,91.90
2022-09-15T18:57:40.259Z,91.65
2022-09-15T19:00:45.647Z,91.86
2022-09-15T19:03:47.790Z,91.59
2022-09-15T19:06:50.028Z,92.00
2022-09-15T19:09:56.369Z,91.77
2022-09-15T19:12:58.907Z,91.84
2022-09-15T19:16:08.604Z,91.86
2022-09-15T19:19:10.958Z,91.85
2022-09-15T19:22:13.218Z,91.40
2022-09-15T19:25:15.546Z,91.54
2022-09-15T19:28:17.683Z,91.10
2022-09-15T19:31:20.038Z,91.56
2022-09-15T19:34:22.297Z,91.65
2022-09-15T19:37:24.580Z,92.34
2022-09-15T19:40:26.917Z,92.32
2022-09-15T19:43:29.187Z,92.25
2022-09-15T19:46:31.567Z,92.92
2022-09-15T19:49:33.880Z,92.94
2022-09-15T19:52:36.171Z,93.59
2022-09-15T19:55:38.453Z,93.40
2022-09-15T19:58:40.727Z,92.99
2022-09-15T20:01:43.284Z,93.99
2022-09-15T20:04:45.587Z,93.87
2022-09-15T20:07:48.790Z,93.95
2022-09-15T20:10:51.230Z,93.95
2022-09-15T20:13:54.676Z,94.15
2022-09-15T20:17:00.310Z,94.44
2022-09-15T20:20:03.779Z,94.52
2022-09-15T20:23:05.935Z,95.40
2022-09-15T20:26:10.740Z,95.18
2022-09-15T20:29:13.317Z,95.20
2022-09-15T20:35:43.070Z,95.25
2022-09-15T20:38:46.921Z,95.39
2022-09-15T20:41:49.119Z,95.41
2022-09-15T20:44:51.373Z,95.04
2022-09-15T20:47:54.390Z,94.67
2022-09-15T20:51:05.656Z,94.83
2022-09-15T20:54:07.884Z,95.44
2022-09-15T20:57:10.199Z,95.55
2022-09-15T21:00:12.987Z,95.82
2022-09-15T21:03:15.926Z,95.82
2022-09-15T21:06:21.251Z,95.80
2022-09-15T21:09:23.557Z,95.85
2022-09-15T21:12:25.764Z,95.38
2022-09-15T21:15:28.298Z,95.80
2022-09-15T21:18:34.599Z,96.26
2022-09-15T21:21:36.848Z,95.87
2022-09-15T21:24:38.981Z,96.28
2022-09-15T21:27:41.307Z,96.37
2022-09-15T21:30:43.443Z,96.95
2022-09-15T21:33:47.502Z,96.83
2022-09-15T21:36:51.748Z,97.04
2022-09-15T21:39:54.082Z,97.11
2022-09-15T21:42:56.278Z,97.17
2022-09-15T21:45:59.016Z,97.15
2022-09-15T21:49:01.197Z,97.39
2022-09-15T21:52:03.388Z,97.13
2022-09-15T21:55:05.960Z,97.10
2022-09-15T21:58:08.338Z,97.00
2022-09-15T22:01:19.274Z,96.71
2022-09-15T22:04:21.627Z,96.61
2022-09-15T22:07:23.990Z,96.60
2022-09-15T22:10:26.209Z,96.72
2022-09-15T22:13:28.413Z,96.78
2022-09-15T22:16:30.693Z,96.48
2022-09-15T22:19:32.908Z,96.55
2022-09-15T22:22:35.485Z,96.90
2022-09-15T22:25:37.670Z,96.86
2022-09-15T22:28:40.292Z,97.15
2022-09-15T22:31:42.641Z,97.14
2022-09-15T22:34:45.656Z,96.85
2022-09-15T22:37:47.791Z,96.67
2022-09-15T22:40:50.020Z,96.85
2022-09-15T22:43:52.184Z,96.86
2022-09-15T22:46:56.582Z,97.04
2022-09-15T22:50:01.749Z,97.04
2022-09-15T22:53:04.260Z,97.26
2022-09-15T22:56:19.903Z,96.84
2022-09-15T22:59:22.407Z,97.07
2022-09-15T23:02:24.615Z,96.45
2022-09-15T23:05:26.872Z,96.82
2022-09-15T23:08:30.217Z,96.73
2022-09-15T23:11:33.352Z,96.70
2022-09-15T23:14:36.098Z,96.65
2022-09-15T23:17:39.115Z,96.51
2022-09-15T23:20:42.502Z,96.77
2022-09-15T23:23:47.662Z,97.06
2022-09-15T23:26:49.828Z,97.13
2022-09-15T23:29:52.041Z,97.01
2022-09-15T23:32:54.441Z,97.04
2022-09-15T23:35:59.173Z,97.11
2022-09-15T23:39:01.375Z,97.24
2022-09-15T23:42:03.794Z,97.52
2022-09-15T23:45:06.441Z,97.65
2022-09-15T23:48:09.382Z,97.13
2022-09-15T23:51:11.591Z,97.14
2022-09-15T23:54:13.941Z,97.03
2022-09-15T23:57:16.117Z,97.34
